createdAt,value
2023-04-09T00:01:55.147Z,7.3
2023-04-09T00:07:01.023Z,7
2023-04-09T00:12:07.102Z,6.7
2023-04-09T00:17:13.216Z,6.7
2023-04-09T00:27:25.451Z,7.3
2023-04-09T00:32:30.595Z,7
2023-04-09T00:37:36.693Z,7
2023-04-09T00:42:42.819Z,7.3
2023-04-09T00:47:48.934Z,7
2023-04-09T00:52:55.042Z,7.3
2023-04-09T00:58:01.167Z,6.7
2023-04-09T01:03:07.285Z,7.3
2023-04-09T01:08:13.384Z,6.7
2023-04-09T01:13:19.502Z,6.7
2023-04-09T01:18:25.622Z,6.7
2023-04-09T01:23:31.732Z,6.7
2023-04-09T01:28:37.860Z,6.7
2023-04-09T01:33:43.981Z,7
2023-04-09T01:38:49.093Z,6.7
2023-04-09T01:43:55.218Z,7.3
2023-04-09T01:49:01.312Z,6.7
2023-04-09T01:54:07.453Z,7.3
2023-04-09T01:59:13.567Z,6.7
2023-04-09T02:04:19.703Z,7
2023-04-09T02:09:25.801Z,7
2023-04-09T02:14:31.923Z,7
2023-04-09T02:19:38.037Z,7
2023-04-09T02:24:44.159Z,6.7
2023-04-09T02:29:50.306Z,7
2023-04-09T02:34:56.420Z,6.7
2023-04-09T02:40:02.562Z,6.3
2023-04-09T02:45:07.657Z,7
2023-04-09T02:50:13.777Z,6.7
2023-04-09T02:55:19.898Z,7
2023-04-09T03:00:26.025Z,7
2023-04-09T03:05:32.142Z,6.3
2023-04-09T03:10:38.249Z,7
2023-04-09T03:15:44.374Z,6.7
2023-04-09T03:20:50.478Z,6.7
2023-04-09T03:25:56.594Z,6.3
2023-04-09T03:31:02.721Z,6.7
2023-04-09T03:36:08.862Z,7
2023-04-09T03:41:14.957Z,6.7
2023-04-09T03:46:21.103Z,6.7
2023-04-09T03:51:26.196Z,6.3
2023-04-09T03:56:32.316Z,6.7
2023-04-09T04:01:38.445Z,7
2023-04-09T04:06:44.556Z,6.7
2023-04-09T04:11:50.661Z,6.3
2023-04-09T04:16:56.778Z,6.7
2023-04-09T04:22:02.893Z,7
2023-04-09T04:27:09.037Z,6
2023-04-09T04:32:15.116Z,6.3
2023-04-09T04:37:21.232Z,7.3
2023-04-09T04:42:27.371Z,6.7
2023-04-09T04:47:33.474Z,6.3
2023-04-09T04:52:39.582Z,6.3
2023-04-09T04:57:44.729Z,6.3
2023-04-09T05:02:50.861Z,6.7
2023-04-09T05:07:56.954Z,6.7
2023-04-09T05:13:03.080Z,6.3
2023-04-09T05:18:09.188Z,6.7
2023-04-09T05:23:15.288Z,6
2023-04-09T05:28:21.433Z,6
2023-04-09T05:33:27.534Z,6.3
2023-04-09T05:38:33.643Z,6.3
2023-04-09T05:43:39.765Z,6.3
2023-04-09T05:48:45.881Z,6
2023-04-09T05:53:52.009Z,6.3
2023-04-09T05:58:58.121Z,6.3
2023-04-09T06:04:03.234Z,6
2023-04-09T06:09:09.358Z,6.3
2023-04-09T06:14:15.482Z,6.7
2023-04-09T06:19:21.604Z,6.3
2023-04-09T06:24:27.722Z,6.3
2023-04-09T06:29:33.832Z,6.3
2023-04-09T06:34:39.965Z,6.3
2023-04-09T06:39:46.062Z,6
2023-04-09T06:44:52.196Z,6
2023-04-09T06:49:58.306Z,6.3
2023-04-09T06:55:04.463Z,6.3
2023-04-09T07:00:10.539Z,6.3
2023-04-09T07:05:16.647Z,6
2023-04-09T07:10:21.929Z,5.7
2023-04-09T07:15:28.062Z,6
2023-04-09T07:20:34.005Z,6.7
2023-04-09T07:25:40.100Z,6.7
2023-04-09T07:30:46.310Z,6.3
2023-04-09T07:35:52.333Z,6
2023-04-09T07:40:58.448Z,5.7
2023-04-09T07:46:04.554Z,6
2023-04-09T07:51:10.710Z,6.3
2023-04-09T07:56:16.996Z,6
2023-04-09T08:01:23.058Z,6.3
2023-04-09T08:06:29.134Z,5.7
2023-04-09T08:11:35.337Z,6.3
2023-04-09T08:16:40.417Z,6
2023-04-09T08:21:46.513Z,6
2023-04-09T08:26:52.516Z,6.3
2023-04-09T08:31:58.799Z,5.7
2023-04-09T08:37:04.865Z,6
2023-04-09T08:42:10.875Z,6.7
2023-04-09T08:47:16.908Z,6
2023-04-09T08:52:23.031Z,6
2023-04-09T08:57:29.248Z,5.7
2023-04-09T09:02:35.275Z,6.3
2023-04-09T09:07:41.507Z,5.4
2023-04-09T09:12:47.634Z,6
2023-04-09T09:17:53.733Z,5.7
2023-04-09T09:22:58.805Z,5.7
2023-04-09T09:28:04.972Z,6
2023-04-09T09:33:11.061Z,5.7
2023-04-09T09:38:17.134Z,5.7
2023-04-09T09:43:23.192Z,6
2023-04-09T09:48:29.235Z,5.7
2023-04-09T09:53:35.324Z,6
2023-04-09T09:58:41.444Z,6.3
2023-04-09T10:03:47.566Z,6.7
2023-04-09T10:08:53.660Z,6.3
2023-04-09T10:13:59.769Z,6
2023-04-09T10:19:05.869Z,5.7
2023-04-09T10:24:11.994Z,6
2023-04-09T10:29:17.110Z,6
2023-04-09T10:34:23.256Z,5.7
2023-04-09T10:39:29.342Z,5.7
2023-04-09T10:44:35.452Z,6.3
2023-04-09T10:49:41.552Z,6.3
2023-04-09T10:54:47.671Z,6
2023-04-09T10:59:53.791Z,6.3
2023-04-09T11:04:59.907Z,5.7
2023-04-09T11:10:05.992Z,5.7
2023-04-09T11:15:12.115Z,6
2023-04-09T11:20:18.266Z,6
2023-04-09T11:25:24.378Z,6.3
2023-04-09T11:30:30.468Z,6
2023-04-09T11:35:35.607Z,6.7
2023-04-09T11:40:41.724Z,6
2023-04-09T11:45:47.876Z,7
2023-04-09T11:50:53.952Z,6.3
2023-04-09T11:56:00.069Z,6.7
2023-04-09T12:01:06.179Z,6.3
2023-04-09T12:06:12.267Z,7.3
2023-04-09T12:11:18.388Z,6
2023-04-09T12:16:24.508Z,6.7
2023-04-09T12:21:30.620Z,6.3
2023-04-09T12:26:36.718Z,6.7
2023-04-09T12:31:42.846Z,6.7
2023-04-09T12:36:48.940Z,6.7
2023-04-09T12:41:54.072Z,7.3
2023-04-09T12:47:00.175Z,6.7
2023-04-09T12:52:06.287Z,6.7
2023-04-09T12:57:12.415Z,6.3
2023-04-09T13:02:18.506Z,7
2023-04-09T13:07:24.655Z,6.7
2023-04-09T13:12:30.728Z,6.7
2023-04-09T13:17:36.864Z,6.7
2023-04-09T13:22:42.950Z,7.3
2023-04-09T13:27:49.071Z,7
2023-04-09T13:32:55.171Z,6.7
2023-04-09T13:38:01.294Z,7
2023-04-09T13:43:07.403Z,6.7
2023-04-09T13:48:12.525Z,7
2023-04-09T13:53:18.633Z,6.7
2023-04-09T13:58:24.789Z,7
2023-04-09T14:03:30.856Z,7.3
2023-04-09T14:08:36.965Z,7
2023-04-09T14:13:42.108Z,7.3
2023-04-09T14:18:48.194Z,7.3
2023-04-09T14:23:54.310Z,7
2023-04-09T14:29:00.436Z,7.3
2023-04-09T14:34:06.540Z,7
2023-04-09T14:39:12.643Z,7.6
2023-04-09T14:44:18.755Z,7.6
2023-04-09T14:49:24.884Z,7.3
2023-04-09T14:54:30.983Z,7.3
2023-04-09T14:59:37.090Z,7.6
2023-04-09T15:04:43.223Z,8
2023-04-09T15:09:49.339Z,7.6
2023-04-09T15:14:55.454Z,7.3
2023-04-09T15:20:00.562Z,7.3
2023-04-09T15:25:06.675Z,7.3
2023-04-09T15:30:12.786Z,7.6
2023-04-09T15:35:18.896Z,8
2023-04-09T15:40:25.006Z,7.6
2023-04-09T15:45:31.110Z,8
2023-04-09T15:50:37.228Z,8
2023-04-09T15:55:43.357Z,7.6
2023-04-09T16:00:49.464Z,8
2023-04-09T16:05:55.599Z,8.3
2023-04-09T16:11:01.692Z,8
2023-04-09T16:16:07.810Z,8
2023-04-09T16:21:13.915Z,7
2023-04-09T16:26:19.035Z,8.3
2023-04-09T16:31:25.168Z,7.6
2023-04-09T16:36:31.262Z,8.3
2023-04-09T16:41:37.394Z,7.6
2023-04-09T16:46:43.487Z,8.3
2023-04-09T16:51:49.601Z,8.3
2023-04-09T16:56:55.712Z,8.3
2023-04-09T17:02:01.822Z,8
2023-04-09T17:07:07.931Z,8
2023-04-09T17:12:14.038Z,8
2023-04-09T17:17:20.158Z,8
2023-04-09T17:22:26.271Z,8
2023-04-09T17:27:32.375Z,8.3
2023-04-09T17:32:37.485Z,8
2023-04-09T17:37:43.623Z,8
2023-04-09T17:42:49.701Z,8.6
2023-04-09T17:47:55.810Z,8
2023-04-09T17:53:01.936Z,8.3
2023-04-09T17:58:08.051Z,8.3
2023-04-09T18:03:14.165Z,8.3
2023-04-09T18:08:20.269Z,8
2023-04-09T18:13:26.397Z,8.6
2023-04-09T18:18:32.510Z,8
2023-04-09T18:23:38.600Z,8.3
2023-04-09T18:28:44.767Z,8.6
2023-04-09T18:33:50.857Z,8.3
2023-04-09T18:38:55.970Z,8.6
2023-04-09T18:44:02.056Z,8.3
2023-04-09T18:49:08.220Z,8.6
2023-04-09T18:54:14.299Z,8.3
2023-04-09T18:59:20.405Z,8.3
2023-04-09T19:04:26.519Z,8
2023-04-09T19:09:32.636Z,8
2023-04-09T19:14:38.769Z,8.3
2023-04-09T19:19:44.953Z,7.6
2023-04-09T19:24:50.986Z,8.3
2023-04-09T19:29:57.110Z,8.3
2023-04-09T19:35:03.234Z,8.3
2023-04-09T19:40:09.348Z,7.3
2023-04-09T19:45:14.470Z,8.6
2023-04-09T19:50:20.599Z,8
2023-04-09T19:55:26.733Z,8.3
2023-04-09T20:00:32.820Z,8.3
2023-04-09T20:05:38.935Z,8.6
2023-04-09T20:10:45.068Z,8.6
2023-04-09T20:15:51.185Z,8.6
2023-04-09T20:20:57.309Z,8.6
2023-04-09T20:26:03.478Z,8.3
2023-04-09T20:31:09.538Z,8.3
2023-04-09T20:36:15.648Z,8.6
2023-04-09T20:41:21.770Z,8.3
2023-04-09T20:46:27.893Z,8.6
2023-04-09T20:51:33.029Z,8.9
2023-04-09T20:56:39.145Z,8.6
2023-04-09T21:01:45.275Z,8
2023-04-09T21:06:51.393Z,8.3
2023-04-09T21:11:57.533Z,8.6
2023-04-09T21:17:03.651Z,8.3
2023-04-09T21:22:09.821Z,8.6
2023-04-09T21:27:15.906Z,8.3
2023-04-09T21:32:22.023Z,8.3
2023-04-09T21:37:28.133Z,8.6
2023-04-09T21:42:34.256Z,8.6
2023-04-09T21:47:40.399Z,8.3
2023-04-09T21:52:46.511Z,8.3
2023-04-09T21:57:51.664Z,8.3
2023-04-09T22:02:57.772Z,7.6
2023-04-09T22:08:03.896Z,8
2023-04-09T22:13:10.017Z,8.3
2023-04-09T22:18:16.113Z,8.6
2023-04-09T22:23:22.218Z,8.6
2023-04-09T22:28:28.338Z,8.6
2023-04-09T22:33:34.498Z,8
2023-04-09T22:38:40.560Z,7.6
2023-04-09T22:43:46.674Z,8.3
2023-04-09T22:48:52.836Z,8.3
2023-04-09T22:53:58.910Z,8.3
2023-04-09T22:59:05.075Z,8.3
2023-04-09T23:04:10.179Z,8.6
2023-04-09T23:09:16.293Z,8.6
2023-04-09T23:14:22.394Z,8
2023-04-09T23:19:28.514Z,7.6
2023-04-09T23:24:34.624Z,8.3
2023-04-09T23:29:40.741Z,8.3
2023-04-09T23:34:46.862Z,8
2023-04-09T23:39:53.025Z,8
2023-04-09T23:44:59.090Z,8
2023-04-09T23:50:05.209Z,8.3
2023-04-09T23:55:11.435Z,8
